Time;durP1;ratioP1;P1;durP2;ratioP2;P2;SDS_P1;SDS_P2;PMS_P1;PMS_P2;Temp;Humidity;BMP_temperature;BMP_pressure;BME280_temperature;BME280_humidity;BME280_pressure;Samples;Min_cycle;Max_cycle;Signal;HPM_P1;HPM_P2
2022/05/01 00:00:15;;;;;;;10.55;7.18;;;11.90;93.10;;;;;;2083760;28;20026;-68
2022/05/01 00:01:15;;;;;;;7.97;6.38;;;11.90;92.80;;;;;;2080414;28;20104;-68
2022/05/01 00:02:16;;;;;;;8.70;6.55;;;11.90;92.80;;;;;;2081740;28;20028;-68
2022/05/01 00:03:39;;;;;;;13.43;6.63;;;11.90;93.20;;;;;;2082368;28;20059;-68
2022/05/01 00:04:37;;;;;;;7.93;7.13;;;11.90;93.50;;;;;;2077922;28;20033;-68
2022/05/01 00:05:37;;;;;;;7.90;6.70;;;11.90;93.60;;;;;;2079816;28;20100;-68
2022/05/01 00:06:38;;;;;;;8.13;5.88;;;11.90;93.60;;;;;;2080528;28;20049;-68
2022/05/01 00:07:38;;;;;;;8.68;6.82;;;11.90;93.30;;;;;;2082462;28;20025;-68
2022/05/01 00:08:41;;;;;;;7.57;6.60;;;11.90;93.70;;;;;;2080850;28;20037;-68
2022/05/01 00:09:42;;;;;;;7.65;6.20;;;11.80;94.10;;;;;;2080273;28;20033;-68
2022/05/01 00:10:42;;;;;;;8.95;6.93;;;11.80;94.10;;;;;;2080497;28;20061;-68
2022/05/01 00:11:43;;;;;;;7.35;6.43;;;11.80;94.40;;;;;;2080371;28;20054;-68
2022/05/01 00:12:43;;;;;;;6.95;6.35;;;11.80;94.60;;;;;;2081109;28;20027;-68
2022/05/01 00:13:45;;;;;;;6.97;6.18;;;11.80;94.10;;;;;;2080099;28;20032;-68
2022/05/01 00:14:46;;;;;;;7.18;6.32;;;11.80;94.00;;;;;;2080917;28;20397;-68
2022/05/01 00:15:46;;;;;;;7.47;6.47;;;11.80;94.10;;;;;;2083007;28;20049;-68
2022/05/01 00:16:49;;;;;;;9.98;6.53;;;11.80;94.00;;;;;;2080010;28;20022;-68
2022/05/01 00:17:49;;;;;;;6.32;5.72;;;11.80;94.40;;;;;;2082411;28;20051;-68
2022/05/01 00:18:50;;;;;;;6.93;6.22;;;11.80;93.60;;;;;;2078811;28;20026;-68
2022/05/01 00:19:51;;;;;;;8.23;7.15;;;11.80;93.80;;;;;;2079439;28;20026;-68
2022/05/01 00:20:51;;;;;;;7.63;6.00;;;11.80;94.30;;;;;;2080038;28;20509;-68
2022/05/01 00:21:55;;;;;;;6.40;5.65;;;11.80;94.60;;;;;;2080282;28;20448;-68
2022/05/01 00:22:56;;;;;;;6.00;5.50;;;11.70;94.00;;;;;;2079671;28;20030;-68
2022/05/01 00:23:57;;;;;;;6.45;5.85;;;11.70;94.10;;;;;;2083516;28;20039;-68
2022/05/01 00:24:57;;;;;;;8.75;7.00;;;11.70;94.20;;;;;;2082036;28;20033;-68
2022/05/01 00:26:00;;;;;;;7.15;5.97;;;11.70;94.50;;;;;;2083377;28;20025;-68
2022/05/01 00:27:01;;;;;;;7.07;6.40;;;11.70;94.10;;;;;;2082093;28;20028;-68
2022/05/01 00:28:01;;;;;;;7.20;6.43;;;11.70;94.30;;;;;;2080331;28;20060;-68
2022/05/01 00:29:04;;;;;;;6.78;6.10;;;11.70;94.70;;;;;;2080825;28;20029;-68
2022/05/01 00:30:05;;;;;;;8.90;6.80;;;11.70;94.90;;;;;;2078673;28;20037;-68
2022/05/01 00:31:07;;;;;;;8.15;6.13;;;11.70;94.80;;;;;;2079797;28;20104;-68
2022/05/01 00:32:08;;;;;;;7.55;6.68;;;11.70;94.90;;;;;;2083178;28;20104;-68
2022/05/01 00:37:07;;;;;;;8.48;7.35;;;11.60;94.70;;;;;;2077889;28;20025;-68
2022/05/01 00:38:07;;;;;;;6.68;5.95;;;11.50;95.80;;;;;;2079493;28;20033;-68
2022/05/01 00:39:08;;;;;;;8.15;5.90;;;11.50;95.50;;;;;;2080055;28;20409;-68
2022/05/01 00:40:09;;;;;;;7.93;7.05;;;11.50;95.20;;;;;;2080330;28;20030;-68
2022/05/01 00:41:11;;;;;;;6.72;6.00;;;11.50;95.50;;;;;;2078577;28;20038;-68
2022/05/01 00:42:11;;;;;;;9.10;7.00;;;11.50;95.60;;;;;;2079478;28;20021;-68
2022/05/01 00:43:12;;;;;;;8.32;7.22;;;11.50;96.20;;;;;;2079225;28;20033;-68
2022/05/01 00:44:17;;;;;;;8.18;5.90;;;11.50;96.50;;;;;;2080361;28;20026;-68
2022/05/01 00:45:18;;;;;;;7.72;6.43;;;11.50;96.20;;;;;;2078363;28;20575;-68
2022/05/01 00:46:19;;;;;;;6.78;6.18;;;11.50;96.10;;;;;;2079264;28;20432;-68
2022/05/01 00:47:19;;;;;;;7.30;6.60;;;11.50;96.30;;;;;;2076427;28;20052;-68
2022/05/01 00:48:20;;;;;;;7.93;6.10;;;11.50;96.20;;;;;;2080324;28;20145;-68
2022/05/01 00:49:26;;;;;;;7.10;5.97;;;11.40;96.40;;;;;;2081165;28;20088;-68
2022/05/01 00:50:26;;;;;;;7.32;6.63;;;11.40;96.30;;;;;;2082074;28;20033;-68
2022/05/01 00:51:33;;;;;;;7.82;7.10;;;11.40;96.60;;;;;;2081383;28;20029;-68
2022/05/01 00:52:34;;;;;;;8.75;7.50;;;11.40;97.50;;;;;;2080760;28;20024;-68
2022/05/01 00:53:35;;;;;;;10.75;7.20;;;11.40;97.90;;;;;;2079686;28;20052;-68
2022/05/01 00:54:38;;;;;;;8.93;6.55;;;11.40;97.80;;;;;;2079788;28;20025;-68
2022/05/01 00:55:39;;;;;;;11.02;7.43;;;11.30;97.40;;;;;;2079283;28;20025;-68
2022/05/01 00:56:41;;;;;;;8.32;7.32;;;11.30;97.90;;;;;;2080065;28;20026;-68
2022/05/01 00:57:45;;;;;;;8.02;6.40;;;11.30;98.00;;;;;;2082280;28;20040;-67
2022/05/01 00:58:48;;;;;;;7.43;6.63;;;11.30;97.50;;;;;;2079436;28;20064;-68
2022/05/01 00:59:50;;;;;;;7.50;6.82;;;11.30;97.20;;;;;;2080793;28;20366;-68
2022/05/01 01:00:53;;;;;;;7.97;7.18;;;11.30;98.00;;;;;;2080071;28;20029;-67
2022/05/01 01:01:54;;;;;;;7.25;6.53;;;11.30;98.00;;;;;;2076601;28;20111;-67
2022/05/01 01:02:55;;;;;;;6.35;5.57;;;11.20;97.60;;;;;;2083429;28;20029;-67
2022/05/01 01:03:55;;;;;;;8.52;6.18;;;11.20;96.90;;;;;;2079854;28;20032;-68
2022/05/01 01:04:56;;;;;;;7.50;6.80;;;11.20;97.10;;;;;;2082438;28;20441;-68
2022/05/01 01:05:57;;;;;;;7.88;6.93;;;11.20;97.60;;;;;;2079318;28;20043;-68
2022/05/01 01:06:57;;;;;;;10.45;7.25;;;11.20;98.20;;;;;;2080097;28;20029;-68
2022/05/01 01:08:00;;;;;;;9.82;6.50;;;11.20;98.40;;;;;;2077678;28;20079;-68
2022/05/01 01:09:01;;;;;;;7.35;6.53;;;11.20;98.20;;;;;;2077916;28;20040;-68
2022/05/01 01:10:02;;;;;;;7.38;6.45;;;11.20;98.60;;;;;;2079534;28;20017;-68
2022/05/01 01:11:03;;;;;;;9.95;6.88;;;11.10;99.10;;;;;;2079855;28;20026;-68
2022/05/01 01:13:29;;;;;;;7.53;6.82;;;11.10;98.60;;;;;;2078394;28;20405;-68
2022/05/01 01:14:33;;;;;;;8.98;7.20;;;11.10;99.60;;;;;;2072688;28;20037;-68
2022/05/01 01:15:35;;;;;;;7.70;6.95;;;11.00;99.50;;;;;;2075465;28;20038;-68
2022/05/01 01:16:37;;;;;;;7.22;6.38;;;11.00;99.70;;;;;;2079108;28;20389;-68
2022/05/01 01:17:42;;;;;;;8.40;6.50;;;11.00;99.80;;;;;;2079819;28;20029;-68
2022/05/01 01:18:43;;;;;;;6.85;6.20;;;11.10;99.70;;;;;;2082551;28;20021;-68
2022/05/01 01:19:44;;;;;;;8.38;7.28;;;11.00;99.90;;;;;;2082549;28;20037;-68
2022/05/01 01:20:44;;;;;;;10.43;6.80;;;11.00;99.90;;;;;;2081918;28;20021;-68
2022/05/01 01:21:51;;;;;;;7.95;6.43;;;11.00;99.90;;;;;;2083791;28;20029;-68
2022/05/01 01:22:54;;;;;;;6.97;6.35;;;11.00;99.90;;;;;;2079414;28;20084;-68
2022/05/01 01:23:56;;;;;;;7.50;6.70;;;11.00;99.70;;;;;;2080809;28;20018;-68
2022/05/01 01:24:57;;;;;;;8.30;6.80;;;11.00;99.90;;;;;;2079787;28;20087;-68
2022/05/01 01:25:57;;;;;;;7.53;5.88;;;10.90;99.90;;;;;;2079592;28;20037;-68
2022/05/01 01:26:58;;;;;;;8.48;7.60;;;10.90;99.90;;;;;;2079756;28;20120;-68
2022/05/01 01:28:04;;;;;;;7.78;6.57;;;10.90;99.90;;;;;;2079942;28;20480;-68
2022/05/01 01:31:40;;;;;;;7.40;5.68;;;10.90;99.90;;;;;;2079646;28;20026;-68
2022/05/01 01:31:45;;;;;;;7.05;6.45;;;10.90;99.90;;;;;;2078528;28;20029;-67
2022/05/01 01:32:47;;;;;;;7.50;6.80;;;10.90;99.90;;;;;;2080121;28;20021;-67
2022/05/01 01:33:51;;;;;;;6.35;5.68;;;10.90;99.90;;;;;;2078957;28;20136;-67
2022/05/01 01:34:54;;;;;;;9.50;7.97;;;10.90;99.90;;;;;;2079223;28;20021;-67
2022/05/01 01:35:58;;;;;;;8.43;7.10;;;10.90;99.90;;;;;;2080359;28;20033;-67
2022/05/01 01:37:00;;;;;;;6.78;6.18;;;10.80;99.90;;;;;;2079947;28;20544;-67
2022/05/01 01:38:01;;;;;;;7.10;6.45;;;10.80;99.90;;;;;;2080443;28;20473;-67
2022/05/01 01:39:01;;;;;;;8.07;7.22;;;10.80;99.90;;;;;;2080867;28;20420;-67
2022/05/01 01:40:02;;;;;;;7.65;6.55;;;10.80;99.90;;;;;;2080253;28;20478;-67
2022/05/01 01:41:08;;;;;;;7.63;6.80;;;10.80;99.90;;;;;;2080019;28;20029;-67
2022/05/01 01:42:11;;;;;;;7.07;5.65;;;10.80;99.90;;;;;;2082972;28;20036;-67
2022/05/01 01:43:13;;;;;;;8.80;6.75;;;10.70;99.90;;;;;;2081676;28;20029;-67
2022/05/01 01:44:14;;;;;;;8.82;7.22;;;10.70;99.90;;;;;;2082109;28;20079;-67
2022/05/01 01:45:16;;;;;;;7.57;6.68;;;10.70;99.90;;;;;;2081299;28;20075;-67
2022/05/01 01:46:17;;;;;;;7.82;6.88;;;10.70;99.90;;;;;;2081089;28;20493;-67
2022/05/01 01:47:18;;;;;;;7.70;6.97;;;10.70;99.90;;;;;;2081155;28;20049;-67
2022/05/01 01:48:20;;;;;;;7.63;6.50;;;10.70;99.90;;;;;;2081496;28;20018;-67
2022/05/01 01:49:20;;;;;;;10.80;6.90;;;10.70;99.90;;;;;;2078492;28;20025;-67
2022/05/01 01:50:21;;;;;;;8.35;7.30;;;10.60;99.90;;;;;;2082184;28;20477;-67
2022/05/01 01:51:22;;;;;;;7.50;6.80;;;10.60;99.90;;;;;;2068098;28;20017;-67
2022/05/01 01:52:22;;;;;;;8.73;6.90;;;10.60;99.90;;;;;;2079051;28;20108;-67
2022/05/01 01:53:23;;;;;;;8.23;6.80;;;10.60;99.90;;;;;;2079162;28;20036;-67
2022/05/01 01:54:24;;;;;;;7.45;6.75;;;10.60;99.90;;;;;;2079538;28;20021;-67
2022/05/01 01:55:25;;;;;;;7.90;7.20;;;10.60;99.90;;;;;;2079420;28;20122;-67
2022/05/01 01:56:26;;;;;;;8.73;7.10;;;10.60;99.90;;;;;;2079744;28;20021;-67
2022/05/01 01:57:26;;;;;;;7.35;6.75;;;10.50;99.90;;;;;;2078924;28;20079;-67
2022/05/01 01:58:28;;;;;;;7.95;7.18;;;10.50;99.90;;;;;;2080982;28;20099;-67
2022/05/01 01:59:28;;;;;;;8.57;7.10;;;10.50;99.90;;;;;;2082712;28;20029;-67
2022/05/01 02:00:29;;;;;;;8.02;7.22;;;10.50;99.90;;;;;;2082632;28;20022;-67
2022/05/01 02:01:30;;;;;;;7.40;6.70;;;10.50;99.90;;;;;;2080514;28;20028;-67
2022/05/01 02:02:30;;;;;;;7.90;7.13;;;10.40;99.90;;;;;;2080858;28;20396;-67
2022/05/01 02:03:31;;;;;;;10.18;7.55;;;10.40;99.90;;;;;;2081240;28;20021;-67
2022/05/01 02:04:32;;;;;;;9.77;8.20;;;10.40;99.90;;;;;;2081707;28;20045;-67
2022/05/01 02:05:34;;;;;;;9.15;7.40;;;10.40;99.90;;;;;;2082404;28;20084;-67
2022/05/01 02:06:34;;;;;;;7.70;7.00;;;10.40;99.90;;;;;;2084834;28;20076;-67
2022/05/01 02:07:35;;;;;;;8.90;7.43;;;10.30;99.90;;;;;;2084172;28;20022;-67
2022/05/01 02:08:36;;;;;;;6.93;6.22;;;10.30;99.90;;;;;;2083105;28;20028;-67
2022/05/01 02:09:37;;;;;;;8.43;7.55;;;10.30;99.90;;;;;;2081111;28;20032;-67
2022/05/01 02:10:39;;;;;;;8.13;6.88;;;10.30;99.90;;;;;;2081239;28;20019;-67
2022/05/01 02:11:40;;;;;;;8.93;7.22;;;10.20;99.90;;;;;;2079607;28;20021;-67
2022/05/01 02:12:40;;;;;;;7.65;6.95;;;10.20;99.90;;;;;;2080884;28;20034;-67
2022/05/01 02:13:41;;;;;;;7.20;6.55;;;10.20;99.90;;;;;;2081395;28;20033;-67
2022/05/01 02:14:41;;;;;;;8.30;7.50;;;10.20;99.90;;;;;;2081747;28;20388;-67
2022/05/01 02:15:43;;;;;;;9.50;7.43;;;10.20;99.90;;;;;;2083264;28;20025;-67
2022/05/01 02:16:44;;;;;;;7.68;6.97;;;10.10;99.90;;;;;;2080768;28;20026;-67
2022/05/01 02:17:45;;;;;;;9.02;7.47;;;10.10;99.90;;;;;;2082576;28;20036;-67
2022/05/01 02:18:46;;;;;;;8.40;7.65;;;10.10;99.90;;;;;;2082392;28;20037;-67
2022/05/01 02:19:46;;;;;;;8.35;7.47;;;10.10;99.90;;;;;;2081619;28;20547;-67
2022/05/01 02:22:06;;;;;;;9.38;8.35;;;10.00;99.90;;;;;;2085667;28;20033;-67
2022/05/01 02:23:06;;;;;;;9.95;7.78;;;10.00;99.90;;;;;;2080856;28;20100;-67
2022/05/01 02:24:09;;;;;;;12.35;8.65;;;9.90;99.90;;;;;;2083579;28;20655;-67
2022/05/01 02:25:10;;;;;;;8.60;7.75;;;9.90;99.90;;;;;;2080718;28;20037;-67
2022/05/01 02:26:12;;;;;;;8.52;7.82;;;9.90;99.90;;;;;;2082316;28;20084;-67
2022/05/01 02:27:13;;;;;;;8.40;7.60;;;9.90;99.90;;;;;;2084035;28;20032;-67
2022/05/01 02:28:14;;;;;;;8.73;7.20;;;9.80;99.90;;;;;;2081071;28;20025;-67
2022/05/01 02:29:15;;;;;;;7.80;7.03;;;9.80;99.90;;;;;;2080836;28;20017;-67
2022/05/01 02:30:16;;;;;;;7.60;6.90;;;9.80;99.90;;;;;;2084234;28;20132;-67
2022/05/01 02:31:17;;;;;;;10.02;7.25;;;9.80;99.90;;;;;;2080970;28;20575;-67
2022/05/01 02:32:17;;;;;;;9.15;7.13;;;9.70;99.90;;;;;;2081078;28;20086;-67
2022/05/01 02:33:19;;;;;;;7.88;7.07;;;9.70;99.90;;;;;;2081224;28;20542;-67
2022/05/01 02:34:22;;;;;;;8.60;7.63;;;9.70;99.90;;;;;;2079603;28;20025;-67
2022/05/01 02:35:23;;;;;;;8.80;7.78;;;9.70;99.90;;;;;;2080421;28;20021;-67
2022/05/01 02:36:23;;;;;;;9.13;7.60;;;9.60;99.90;;;;;;2081677;28;20022;-67
2022/05/01 02:37:24;;;;;;;9.77;7.93;;;9.60;99.90;;;;;;2081707;28;20563;-67
2022/05/01 02:38:24;;;;;;;9.15;8.23;;;9.60;99.90;;;;;;2080799;28;20427;-67
2022/05/01 02:39:25;;;;;;;9.18;8.23;;;9.60;99.90;;;;;;2079004;28;20381;-67
2022/05/01 02:40:26;;;;;;;8.38;7.53;;;9.50;99.90;;;;;;2081896;28;20021;-67
2022/05/01 02:41:28;;;;;;;8.93;7.90;;;9.50;99.90;;;;;;2082823;28;20018;-67
2022/05/01 02:42:28;;;;;;;8.50;7.65;;;9.50;99.90;;;;;;2080904;28;20025;-67
2022/05/01 02:43:29;;;;;;;8.48;7.03;;;9.50;99.90;;;;;;2080708;28;20095;-67
2022/05/01 02:44:29;;;;;;;9.35;8.30;;;9.50;99.90;;;;;;2081957;28;20045;-67
2022/05/01 02:45:30;;;;;;;9.05;8.18;;;9.40;99.90;;;;;;2083413;28;20057;-67
2022/05/01 02:46:32;;;;;;;10.07;8.15;;;9.50;99.90;;;;;;2083897;28;20022;-67
2022/05/01 02:47:33;;;;;;;7.72;7.03;;;9.30;99.90;;;;;;2081625;28;20033;-67
2022/05/01 02:48:34;;;;;;;8.10;7.40;;;9.30;99.90;;;;;;2082533;28;20472;-67
2022/05/01 02:49:35;;;;;;;8.27;7.47;;;9.30;99.90;;;;;;2080757;28;20697;-67
2022/05/01 02:50:36;;;;;;;8.40;7.63;;;9.30;99.90;;;;;;2082082;28;20388;-67
2022/05/01 02:51:36;;;;;;;9.82;7.68;;;9.30;99.90;;;;;;2080468;28;20504;-67
2022/05/01 02:52:37;;;;;;;9.02;8.10;;;9.20;99.90;;;;;;2080412;28;20968;-67
2022/05/01 02:53:38;;;;;;;9.05;8.15;;;9.20;99.90;;;;;;2081080;28;20029;-67
2022/05/01 02:54:38;;;;;;;8.45;7.55;;;9.20;99.90;;;;;;2083997;28;20105;-67
2022/05/01 02:55:39;;;;;;;8.32;7.53;;;9.20;99.90;;;;;;2077745;28;20686;-67
2022/05/01 02:56:39;;;;;;;8.98;8.07;;;9.20;99.90;;;;;;2082462;28;20021;-67
2022/05/01 02:57:41;;;;;;;7.60;6.90;;;9.10;99.90;;;;;;2081907;28;20033;-67
2022/05/01 02:58:42;;;;;;;9.35;7.65;;;9.10;99.90;;;;;;2081541;28;20086;-67
2022/05/01 02:59:42;;;;;;;8.20;7.50;;;9.10;99.90;;;;;;2081252;28;20029;-67
2022/05/01 03:00:43;;;;;;;8.30;7.50;;;9.00;99.90;;;;;;2083290;28;20033;-67
2022/05/01 03:01:44;;;;;;;9.38;8.23;;;9.00;99.90;;;;;;2081638;28;20029;-68
2022/05/01 03:02:46;;;;;;;9.55;8.50;;;9.00;99.90;;;;;;2082839;28;20028;-68
2022/05/01 03:03:46;;;;;;;8.45;7.65;;;9.00;99.90;;;;;;2081137;28;20041;-67
2022/05/01 03:04:47;;;;;;;10.80;8.38;;;9.00;99.90;;;;;;2082462;28;20028;-67
2022/05/01 03:05:47;;;;;;;8.95;8.02;;;9.00;99.90;;;;;;2080563;28;20088;-67
2022/05/01 03:06:48;;;;;;;9.68;8.40;;;8.90;99.90;;;;;;2080088;28;20033;-67
2022/05/01 03:07:48;;;;;;;9.30;8.30;;;8.90;99.90;;;;;;2077986;28;20105;-67
2022/05/01 03:08:49;;;;;;;8.68;7.78;;;8.90;99.90;;;;;;2080431;28;20056;-67
2022/05/01 03:09:50;;;;;;;8.88;7.97;;;8.90;99.90;;;;;;2080586;28;20030;-67
2022/05/01 03:10:51;;;;;;;9.30;8.07;;;8.80;99.90;;;;;;2080536;28;20516;-67
2022/05/01 03:11:51;;;;;;;8.93;8.02;;;8.80;99.90;;;;;;2081091;28;20021;-67
2022/05/01 03:12:52;;;;;;;10.35;8.65;;;8.80;99.90;;;;;;2079602;28;20033;-67
2022/05/01 03:13:53;;;;;;;9.60;8.25;;;8.80;99.90;;;;;;2081529;28;20469;-67
2022/05/01 03:14:57;;;;;;;10.88;9.02;;;8.80;99.90;;;;;;2080543;28;20579;-67
2022/05/01 03:15:58;;;;;;;9.25;8.40;;;8.70;99.90;;;;;;2077224;28;20254;-67
2022/05/01 03:16:59;;;;;;;9.43;8.40;;;8.70;99.90;;;;;;2083862;28;20091;-67
2022/05/01 03:22:13;;;;;;;9.25;8.45;;;8.60;99.90;;;;;;2081888;28;20108;-67
2022/05/01 03:23:14;;;;;;;9.18;8.27;;;8.50;99.90;;;;;;2080389;28;20030;-67
2022/05/01 03:24:15;;;;;;;8.88;7.97;;;8.50;99.90;;;;;;2080879;28;20120;-67
2022/05/01 03:25:17;;;;;;;9.77;8.80;;;8.50;99.90;;;;;;2083202;28;20033;-67
2022/05/01 03:26:18;;;;;;;9.00;8.10;;;8.50;99.90;;;;;;2083807;28;20112;-67
2022/05/01 03:27:19;;;;;;;10.65;9.32;;;8.50;99.90;;;;;;2079456;28;20029;-67
2022/05/01 03:28:19;;;;;;;10.20;8.65;;;8.50;99.90;;;;;;2080525;28;20030;-67
2022/05/01 03:29:20;;;;;;;10.65;9.23;;;8.50;99.90;;;;;;2079473;28;20029;-67
2022/05/01 03:30:21;;;;;;;10.50;8.52;;;8.40;99.90;;;;;;2080247;28;20023;-67
2022/05/01 03:31:22;;;;;;;9.68;8.30;;;8.40;99.90;;;;;;2080493;28;20028;-67
2022/05/01 03:32:22;;;;;;;9.07;8.15;;;8.40;99.90;;;;;;2080790;28;20025;-67
2022/05/01 03:33:25;;;;;;;12.15;9.85;;;8.40;99.90;;;;;;2081119;28;20063;-67
2022/05/01 03:34:26;;;;;;;9.57;8.68;;;8.40;99.90;;;;;;2083519;28;20028;-67
2022/05/01 03:35:27;;;;;;;9.63;8.70;;;8.40;99.90;;;;;;2082427;28;20115;-67
2022/05/01 03:36:28;;;;;;;11.05;10.00;;;8.30;99.90;;;;;;2082399;28;20091;-67
2022/05/01 03:37:29;;;;;;;10.48;9.48;;;8.30;99.90;;;;;;2081429;28;20483;-67
2022/05/01 03:38:29;;;;;;;10.98;8.43;;;8.30;99.90;;;;;;2081268;28;20033;-67
2022/05/01 03:39:30;;;;;;;11.52;8.95;;;8.30;99.90;;;;;;2081865;28;20026;-67
2022/05/01 03:40:30;;;;;;;9.02;8.13;;;8.30;99.90;;;;;;2081156;28;20025;-67
2022/05/01 03:41:32;;;;;;;10.63;8.50;;;8.30;99.90;;;;;;2078043;28;20024;-67
2022/05/01 03:42:32;;;;;;;9.32;8.30;;;8.20;99.90;;;;;;2080579;28;20114;-67
2022/05/01 03:43:34;;;;;;;9.85;8.95;;;8.20;99.90;;;;;;2081445;28;20401;-67
2022/05/01 03:44:34;;;;;;;12.00;9.50;;;8.20;99.90;;;;;;2081584;28;20048;-67
2022/05/01 03:45:35;;;;;;;10.45;9.35;;;8.20;99.90;;;;;;2080777;28;20014;-67
2022/05/01 03:46:36;;;;;;;10.88;9.77;;;8.20;99.90;;;;;;2081138;28;20014;-67
2022/05/01 03:47:37;;;;;;;10.60;9.23;;;8.20;99.90;;;;;;2080402;28;20026;-67
2022/05/01 03:48:38;;;;;;;10.80;9.70;;;8.10;99.90;;;;;;2081965;28;20013;-67
2022/05/01 03:49:38;;;;;;;11.40;9.48;;;8.10;99.90;;;;;;2083310;28;20024;-67
2022/05/01 03:50:39;;;;;;;10.07;8.98;;;8.10;99.90;;;;;;2080501;28;20029;-67
2022/05/01 03:51:42;;;;;;;10.05;9.05;;;8.10;99.90;;;;;;2079987;28;20127;-67
2022/05/01 03:52:43;;;;;;;9.98;9.07;;;8.10;99.90;;;;;;2075303;28;20026;-67
2022/05/01 03:53:45;;;;;;;9.90;9.00;;;8.10;99.90;;;;;;2080622;28;20068;-67
2022/05/01 03:54:45;;;;;;;9.40;8.43;;;8.10;99.90;;;;;;2080766;28;20032;-67
2022/05/01 03:55:47;;;;;;;8.48;7.68;;;8.10;99.90;;;;;;2080162;28;20093;-67
2022/05/01 03:56:47;;;;;;;9.20;8.30;;;8.00;99.90;;;;;;2078717;28;20025;-67
2022/05/01 03:57:48;;;;;;;10.18;8.85;;;8.10;99.90;;;;;;2085591;28;20064;-67
2022/05/01 03:58:48;;;;;;;10.60;9.27;;;8.00;99.90;;;;;;2081575;28;20029;-67
2022/05/01 03:59:49;;;;;;;10.75;9.75;;;8.00;99.90;;;;;;2082180;28;20049;-67
2022/05/01 04:00:50;;;;;;;12.70;8.75;;;8.00;99.90;;;;;;2079538;28;20072;-67
2022/05/01 04:01:51;;;;;;;10.30;9.30;;;8.00;99.90;;;;;;2080773;28;20025;-67
2022/05/01 04:02:52;;;;;;;10.05;9.05;;;8.00;99.90;;;;;;2080382;28;20038;-67
2022/05/01 04:03:53;;;;;;;10.55;8.57;;;7.90;99.90;;;;;;2079251;28;20032;-67
2022/05/01 04:04:53;;;;;;;8.90;8.00;;;7.90;99.90;;;;;;2080024;28;20083;-67
2022/05/01 04:05:54;;;;;;;10.23;9.23;;;7.90;99.90;;;;;;2080014;28;20088;-67
2022/05/01 04:06:57;;;;;;;10.63;9.23;;;7.90;99.90;;;;;;2079813;28;20033;-67
2022/05/01 04:07:57;;;;;;;12.30;9.73;;;7.90;99.90;;;;;;2081806;28;20083;-67
2022/05/01 04:08:58;;;;;;;9.60;8.60;;;7.90;99.90;;;;;;2081516;28;20108;-67
2022/05/01 04:09:58;;;;;;;9.30;8.50;;;7.80;99.90;;;;;;2080504;28;20025;-67
2022/05/01 04:11:02;;;;;;;9.70;8.80;;;7.90;99.90;;;;;;2080243;28;20116;-67
2022/05/01 04:12:04;;;;;;;10.43;8.98;;;7.90;99.90;;;;;;2080771;28;20029;-67
2022/05/01 04:13:06;;;;;;;9.77;8.77;;;7.80;99.90;;;;;;2080061;28;20497;-67
2022/05/01 04:14:06;;;;;;;11.70;9.48;;;7.80;99.90;;;;;;2080804;28;20466;-67
2022/05/01 04:15:08;;;;;;;11.32;9.60;;;7.80;99.90;;;;;;2080884;28;20445;-67
2022/05/01 04:16:08;;;;;;;9.27;8.38;;;7.80;99.90;;;;;;2081462;28;20029;-67
2022/05/01 04:17:09;;;;;;;10.30;9.38;;;7.70;99.90;;;;;;2081402;28;20040;-67
2022/05/01 04:18:10;;;;;;;11.35;10.13;;;7.80;99.90;;;;;;2081170;28;20044;-67
2022/05/01 04:19:11;;;;;;;9.48;8.57;;;7.80;99.90;;;;;;2080179;28;20029;-67
2022/05/01 04:20:15;;;;;;;9.98;9.02;;;7.70;99.90;;;;;;2084018;28;20057;-67
2022/05/01 04:21:16;;;;;;;10.27;9.27;;;7.80;99.90;;;;;;2082258;28;20033;-67
2022/05/01 04:22:17;;;;;;;10.55;9.45;;;7.70;99.90;;;;;;2083368;28;20025;-67
2022/05/01 04:23:17;;;;;;;10.77;9.68;;;7.70;99.90;;;;;;2079705;28;20388;-67
2022/05/01 04:24:18;;;;;;;9.65;8.68;;;7.70;99.90;;;;;;2082097;28;20052;-67
2022/05/01 04:25:31;;;;;;;10.15;9.13;;;7.70;99.90;;;;;;2082652;28;20810;-67
2022/05/01 04:26:32;;;;;;;10.60;9.50;;;7.70;99.90;;;;;;2078846;28;20033;-67
2022/05/01 04:27:32;;;;;;;11.57;8.75;;;7.70;99.90;;;;;;2080110;28;20534;-67
2022/05/01 04:28:33;;;;;;;10.32;8.73;;;7.70;99.90;;;;;;2082160;28;20662;-67
2022/05/01 04:29:36;;;;;;;11.10;8.85;;;7.60;99.90;;;;;;2080992;28;20105;-67
2022/05/01 04:30:37;;;;;;;10.70;9.50;;;7.60;99.90;;;;;;2080601;28;20796;-67
2022/05/01 04:31:38;;;;;;;10.57;9.45;;;7.60;99.90;;;;;;2079385;28;20048;-67
2022/05/01 04:32:53;;;;;;;10.32;9.32;;;7.60;99.90;;;;;;2078955;28;20056;-67
2022/05/01 04:33:54;;;;;;;9.98;8.25;;;7.60;99.90;;;;;;2079976;28;20517;-67
2022/05/01 04:34:55;;;;;;;10.25;9.25;;;7.60;99.90;;;;;;2081964;28;20148;-67
2022/05/01 04:35:55;;;;;;;11.23;10.13;;;7.60;99.90;;;;;;2080048;28;20075;-67
2022/05/01 04:36:58;;;;;;;11.45;9.75;;;7.60;99.90;;;;;;2080288;28;20099;-67
2022/05/01 04:38:08;;;;;;;9.50;8.55;;;7.60;99.90;;;;;;2079705;28;20447;-67
2022/05/01 04:39:08;;;;;;;12.55;9.85;;;7.60;99.90;;;;;;2078840;28;20037;-67
2022/05/01 04:40:09;;;;;;;11.60;10.43;;;7.50;99.90;;;;;;2082606;28;20558;-67
2022/05/01 04:41:10;;;;;;;10.27;9.27;;;7.60;99.90;;;;;;2081300;28;20021;-67
2022/05/01 04:42:10;;;;;;;9.25;8.43;;;7.60;99.90;;;;;;2080340;28;20193;-67
2022/05/01 04:43:13;;;;;;;11.00;9.55;;;7.50;99.90;;;;;;2080483;28;20025;-67
2022/05/01 04:44:14;;;;;;;10.27;8.00;;;7.60;99.90;;;;;;2079929;28;20034;-67
2022/05/01 04:45:15;;;;;;;10.80;9.63;;;7.60;99.90;;;;;;2080378;28;20037;-67
2022/05/01 04:46:15;;;;;;;10.20;9.20;;;7.60;99.90;;;;;;2079546;28;20029;-67
2022/05/01 04:47:15;;;;;;;10.85;9.75;;;7.60;99.90;;;;;;2078646;28;20033;-68
2022/05/01 04:48:18;;;;;;;11.32;10.10;;;7.60;99.90;;;;;;2075909;28;20112;-69
2022/05/01 04:49:18;;;;;;;13.13;9.38;;;7.60;99.90;;;;;;2077059;28;20129;-67
2022/05/01 04:50:19;;;;;;;10.00;8.60;;;7.50;99.90;;;;;;2079812;28;20099;-67
2022/05/01 04:51:19;;;;;;;8.98;8.07;;;7.50;99.90;;;;;;2076550;28;20037;-67
2022/05/01 04:52:20;;;;;;;10.63;9.45;;;7.50;99.90;;;;;;2079631;28;20041;-67
2022/05/01 04:53:22;;;;;;;10.20;9.20;;;7.60;99.90;;;;;;2079990;28;20017;-68
2022/05/01 04:54:22;;;;;;;11.23;10.02;;;7.60;99.90;;;;;;2078421;28;20724;-69
2022/05/01 04:55:23;;;;;;;10.57;9.30;;;7.50;99.90;;;;;;2079947;28;20034;-69
2022/05/01 04:57:43;;;;;;;10.35;9.30;;;7.60;99.90;;;;;;2078057;28;20045;-69
2022/05/01 04:58:46;;;;;;;11.48;10.23;;;7.60;99.90;;;;;;2078321;28;20484;-69
2022/05/01 04:59:48;;;;;;;10.60;9.52;;;7.60;99.90;;;;;;2078195;28;20448;-69
2022/05/01 05:00:49;;;;;;;10.43;9.40;;;7.60;99.90;;;;;;2078702;28;20636;-69
2022/05/01 05:01:50;;;;;;;11.13;9.75;;;7.60;99.90;;;;;;2079556;28;20541;-69
2022/05/01 05:02:52;;;;;;;11.45;9.55;;;7.60;99.90;;;;;;2079372;28;20629;-67
2022/05/01 05:03:53;;;;;;;11.38;9.80;;;7.60;99.90;;;;;;2079457;28;20079;-69
2022/05/01 05:04:53;;;;;;;9.68;8.68;;;7.60;99.90;;;;;;2076493;28;20021;-69
2022/05/01 05:05:54;;;;;;;10.35;9.25;;;7.60;99.90;;;;;;2079217;28;20021;-67
2022/05/01 05:06:55;;;;;;;11.38;10.25;;;7.60;99.90;;;;;;2081139;28;20036;-69
2022/05/01 05:07:55;;;;;;;11.20;10.10;;;7.70;99.90;;;;;;2079082;28;20028;-69
2022/05/01 05:10:16;;;;;;;11.63;10.43;;;7.70;99.90;;;;;;2079177;28;20026;-69
2022/05/01 05:11:17;;;;;;;12.35;10.98;;;7.70;99.90;;;;;;2078478;28;20018;-69
2022/05/01 05:12:17;;;;;;;11.68;10.50;;;7.70;99.90;;;;;;2078384;28;20612;-69
2022/05/01 05:13:24;;;;;;;11.18;10.05;;;7.80;99.90;;;;;;2079260;28;20112;-69
2022/05/01 05:14:24;;;;;;;11.38;10.10;;;7.80;99.90;;;;;;2076823;28;20026;-69
2022/05/01 05:15:25;;;;;;;11.93;10.75;;;7.80;99.90;;;;;;2078362;28;20548;-69
2022/05/01 05:16:27;;;;;;;13.15;11.85;;;7.90;99.90;;;;;;2079100;28;20091;-69
2022/05/01 05:17:32;;;;;;;11.77;10.57;;;7.90;99.90;;;;;;2079034;28;20618;-69
2022/05/01 05:18:32;;;;;;;13.20;11.20;;;8.00;99.90;;;;;;2079436;28;20025;-69
2022/05/01 05:19:34;;;;;;;14.90;12.75;;;8.00;99.90;;;;;;2077567;28;20503;-69
2022/05/01 05:20:35;;;;;;;14.63;12.25;;;8.10;99.90;;;;;;2079442;28;20043;-69
2022/05/01 05:21:35;;;;;;;13.55;11.95;;;8.10;99.90;;;;;;2079164;28;20033;-69
2022/05/01 05:22:36;;;;;;;15.15;12.95;;;8.20;99.90;;;;;;2078861;28;20056;-69
2022/05/01 05:23:37;;;;;;;13.45;12.02;;;8.20;99.90;;;;;;2077182;28;20029;-69
2022/05/01 05:24:37;;;;;;;13.25;11.95;;;8.30;99.90;;;;;;2081998;28;20461;-69
2022/05/01 05:25:38;;;;;;;13.40;12.00;;;8.30;99.90;;;;;;2078381;28;20071;-69
2022/05/01 05:26:38;;;;;;;13.48;12.07;;;8.40;99.90;;;;;;2077985;28;20022;-69
2022/05/01 05:27:39;;;;;;;14.68;12.30;;;8.50;99.90;;;;;;2078648;28;20030;-69
2022/05/01 05:28:39;;;;;;;16.50;11.98;;;8.50;99.90;;;;;;2079020;28;20412;-69
2022/05/01 05:29:40;;;;;;;13.48;12.02;;;8.60;99.90;;;;;;2077229;28;20504;-69
2022/05/01 05:30:41;;;;;;;13.50;12.30;;;8.70;99.90;;;;;;2079368;28;20104;-69
2022/05/01 05:31:41;;;;;;;10.98;9.75;;;8.70;99.90;;;;;;2079434;28;20040;-69
2022/05/01 05:32:42;;;;;;;12.70;10.70;;;8.80;99.90;;;;;;2077366;28;20061;-69
2022/05/01 05:33:42;;;;;;;13.00;10.77;;;8.80;99.90;;;;;;2079471;28;20033;-69
2022/05/01 05:34:43;;;;;;;14.35;12.18;;;8.80;99.90;;;;;;2079187;28;20026;-69